createdAt,value
2022-08-31T00:00:10.781Z,68.17
2022-08-31T00:02:57.170Z,70.54
2022-08-31T00:05:24.429Z,72.36
2022-08-31T00:07:51.716Z,74.61
2022-08-31T00:10:31.972Z,75.47
2022-08-31T00:13:01.430Z,76.34
2022-08-31T00:15:30.151Z,75.47
2022-08-31T00:17:57.235Z,74.99
2022-08-31T00:20:32.698Z,73.00
2022-08-31T00:23:05.039Z,72.22
2022-08-31T00:25:33.676Z,71.08
2022-08-31T00:28:00.296Z,67.92
2022-08-31T00:30:26.907Z,67.12
2022-08-31T00:32:53.628Z,66.50
2022-08-31T00:35:24.398Z,65.80
2022-08-31T00:37:51.033Z,64.74
2022-08-31T00:40:17.609Z,63.34
2022-08-31T00:42:44.177Z,62.06
2022-08-31T00:45:11.072Z,61.40
2022-08-31T00:47:37.956Z,61.54
2022-08-31T00:50:08.640Z,61.80
2022-08-31T00:52:39.845Z,61.06
2022-08-31T00:55:12.110Z,65.88
2022-08-31T00:57:42.597Z,69.44
2022-08-31T01:00:13.473Z,71.78
2022-08-31T01:02:41.351Z,73.10
2022-08-31T01:05:09.801Z,73.84
2022-08-31T01:07:36.882Z,74.29
2022-08-31T01:10:05.248Z,74.16
2022-08-31T01:12:31.997Z,74.11
2022-08-31T01:15:02.599Z,74.74
2022-08-31T01:17:31.350Z,73.83
2022-08-31T01:20:07.722Z,73.32
2022-08-31T01:22:48.080Z,71.32
2022-08-31T01:25:15.398Z,70.02
2022-08-31T01:27:42.485Z,68.65
2022-08-31T01:30:11.816Z,68.28
2022-08-31T01:32:39.752Z,67.59
2022-08-31T01:35:07.492Z,67.48
2022-08-31T01:37:38.176Z,67.02
2022-08-31T01:40:05.163Z,65.85
2022-08-31T01:42:34.430Z,65.14
2022-08-31T01:45:02.395Z,65.04
2022-08-31T01:47:28.988Z,63.76
2022-08-31T01:49:57.781Z,63.77
2022-08-31T01:52:27.691Z,63.79
2022-08-31T01:54:55.872Z,63.85
2022-08-31T01:57:26.948Z,63.77
2022-08-31T02:00:21.518Z,63.41
2022-08-31T02:02:48.136Z,63.85
2022-08-31T02:05:15.103Z,63.43
2022-08-31T02:07:44.432Z,63.98
2022-08-31T02:10:11.752Z,64.54
2022-08-31T02:12:41.108Z,64.94
2022-08-31T02:15:09.900Z,64.36
2022-08-31T02:17:36.507Z,65.09
2022-08-31T02:20:06.797Z,64.65
2022-08-31T02:22:33.750Z,64.78
2022-08-31T02:25:00.275Z,64.91
2022-08-31T02:27:27.163Z,64.88
2022-08-31T02:29:54.075Z,65.63
2022-08-31T02:32:23.665Z,65.67
2022-08-31T02:34:50.973Z,66.15
2022-08-31T02:37:18.376Z,66.29
2022-08-31T02:39:48.765Z,66.72
2022-08-31T02:42:18.473Z,66.46
2022-08-31T02:44:45.969Z,65.97
2022-08-31T02:47:12.693Z,66.40
2022-08-31T02:49:43.969Z,67.28
2022-08-31T02:52:11.124Z,67.83
2022-08-31T02:54:37.659Z,67.69
2022-08-31T02:57:04.378Z,68.28
2022-08-31T02:59:32.457Z,68.53
2022-08-31T03:01:59.251Z,68.69
2022-08-31T03:04:26.683Z,69.37
2022-08-31T03:06:53.279Z,67.65
2022-08-31T03:09:20.734Z,68.27
2022-08-31T03:11:47.716Z,68.04
2022-08-31T03:14:14.301Z,68.43
2022-08-31T03:16:41.710Z,67.98
2022-08-31T03:19:09.561Z,68.39
2022-08-31T03:21:36.208Z,68.61
2022-08-31T03:24:02.862Z,67.21
2022-08-31T03:26:29.784Z,68.50
2022-08-31T03:28:56.371Z,68.99
2022-08-31T03:31:41.565Z,69.39
2022-08-31T03:34:09.215Z,69.67
2022-08-31T03:36:36.066Z,69.27
2022-08-31T03:39:02.815Z,70.06
2022-08-31T03:41:29.419Z,69.70
2022-08-31T03:43:57.478Z,70.44
2022-08-31T03:46:24.463Z,70.52
2022-08-31T03:48:51.286Z,70.99
2022-08-31T03:51:23.068Z,70.45
2022-08-31T03:53:52.042Z,69.79
2022-08-31T03:56:20.949Z,70.24
2022-08-31T03:58:49.544Z,70.39
2022-08-31T04:01:36.173Z,70.67
2022-08-31T04:04:25.541Z,70.46
2022-08-31T04:07:12.078Z,70.09
2022-08-31T04:09:57.254Z,69.92
2022-08-31T04:12:55.800Z,69.80
2022-08-31T04:16:02.108Z,69.71
2022-08-31T04:18:51.885Z,70.11
2022-08-31T04:21:25.348Z,70.35
2022-08-31T04:23:53.347Z,70.83
2022-08-31T04:26:21.526Z,70.90
2022-08-31T04:28:48.391Z,71.66
2022-08-31T04:31:15.981Z,72.06
2022-08-31T04:33:43.536Z,71.44
2022-08-31T04:36:16.033Z,71.49
2022-08-31T04:38:45.037Z,72.08
2022-08-31T04:41:13.893Z,72.18
2022-08-31T04:43:46.568Z,72.39
2022-08-31T04:46:13.839Z,72.74
2022-08-31T04:48:40.830Z,73.10
2022-08-31T04:51:09.979Z,72.83
2022-08-31T04:53:37.330Z,72.00
2022-08-31T04:56:13.838Z,71.90
2022-08-31T04:58:47.892Z,72.70
2022-08-31T05:01:17.392Z,72.31
2022-08-31T05:04:03.869Z,73.24
2022-08-31T05:06:32.333Z,72.83
2022-08-31T05:09:05.826Z,72.60
2022-08-31T05:11:39.882Z,71.71
2022-08-31T05:14:08.716Z,71.76
2022-08-31T05:16:39.698Z,71.83
2022-08-31T05:19:07.265Z,72.19
2022-08-31T05:21:37.119Z,71.77
2022-08-31T05:24:17.124Z,72.28
2022-08-31T05:26:48.248Z,72.25
2022-08-31T05:29:19.552Z,72.25
2022-08-31T05:31:52.005Z,72.06
2022-08-31T05:34:20.950Z,72.17
2022-08-31T05:36:53.917Z,71.92
2022-08-31T05:39:20.899Z,72.29
2022-08-31T05:41:48.610Z,72.78
2022-08-31T05:44:17.614Z,72.75
2022-08-31T05:46:44.978Z,73.29
2022-08-31T05:49:19.382Z,73.09
2022-08-31T05:51:46.004Z,73.54
2022-08-31T05:54:14.654Z,73.51
2022-08-31T05:56:42.015Z,73.20
2022-08-31T05:59:11.353Z,73.63
2022-08-31T06:01:40.889Z,73.07
2022-08-31T06:04:11.321Z,72.52
2022-08-31T06:06:38.240Z,72.38
2022-08-31T06:09:07.417Z,72.75
2022-08-31T06:11:34.766Z,72.82
2022-08-31T06:14:03.761Z,72.83
2022-08-31T06:16:32.216Z,73.22
2022-08-31T06:18:59.336Z,73.29
2022-08-31T06:21:33.410Z,73.95
2022-08-31T06:24:01.991Z,73.05
2022-08-31T06:26:31.416Z,73.70
2022-08-31T06:29:01.510Z,74.22
2022-08-31T06:31:32.914Z,74.03
2022-08-31T06:34:01.573Z,74.22
2022-08-31T06:36:48.198Z,73.00
2022-08-31T06:39:21.483Z,72.85
2022-08-31T06:41:56.819Z,72.80
2022-08-31T06:44:39.616Z,72.46
2022-08-31T06:47:09.294Z,72.36
2022-08-31T06:49:39.045Z,73.11
2022-08-31T06:52:05.638Z,72.22
2022-08-31T06:54:35.027Z,72.44
2022-08-31T06:57:19.948Z,72.55
2022-08-31T07:00:13.430Z,72.65
2022-08-31T07:03:22.967Z,72.48
2022-08-31T07:05:52.332Z,71.99
2022-08-31T07:08:22.591Z,71.80
2022-08-31T07:10:49.479Z,72.01
2022-08-31T07:13:18.410Z,72.35
2022-08-31T07:15:45.543Z,71.53
2022-08-31T07:18:12.405Z,71.67
2022-08-31T07:20:40.267Z,71.85
2022-08-31T07:23:09.960Z,71.90
2022-08-31T07:25:40.145Z,71.47
2022-08-31T07:28:07.314Z,69.95
2022-08-31T07:30:39.844Z,70.50
2022-08-31T07:33:07.052Z,70.50
2022-08-31T07:35:36.043Z,70.61
2022-08-31T07:38:28.746Z,70.57
2022-08-31T07:41:13.919Z,70.73
2022-08-31T07:43:41.796Z,70.95
2022-08-31T07:46:09.945Z,71.51
2022-08-31T07:48:37.157Z,71.74
2022-08-31T07:51:23.496Z,69.80
2022-08-31T07:54:08.453Z,69.72
2022-08-31T07:57:04.364Z,69.07
2022-08-31T07:59:33.839Z,67.80
2022-08-31T08:02:03.985Z,68.33
2022-08-31T08:04:32.035Z,67.19
2022-08-31T08:07:18.863Z,66.22
2022-08-31T08:10:13.998Z,66.78
2022-08-31T08:12:56.188Z,66.21
2022-08-31T08:15:46.230Z,65.00
2022-08-31T08:18:13.514Z,64.29
2022-08-31T08:20:46.745Z,63.16
2022-08-31T08:23:22.134Z,63.58
2022-08-31T08:26:21.886Z,62.74
2022-08-31T08:29:19.647Z,63.37
2022-08-31T08:31:52.962Z,63.29
2022-08-31T08:34:32.283Z,63.11
2022-08-31T08:37:00.326Z,63.74
2022-08-31T08:39:27.474Z,63.17
2022-08-31T08:42:12.489Z,62.29
2022-08-31T08:44:40.095Z,61.20
2022-08-31T08:47:15.126Z,61.05
2022-08-31T08:49:53.606Z,60.76
2022-08-31T08:52:41.323Z,61.15
2022-08-31T08:55:10.366Z,60.79
2022-08-31T08:57:41.263Z,61.98
2022-08-31T09:00:12.846Z,62.42
2022-08-31T09:03:04.573Z,63.06
2022-08-31T09:06:25.226Z,59.09
2022-08-31T09:09:08.694Z,60.71
2022-08-31T09:12:05.063Z,59.67
2022-08-31T09:14:54.007Z,60.36
2022-08-31T09:17:39.276Z,60.68
2022-08-31T09:20:07.475Z,58.94
2022-08-31T09:22:48.492Z,59.77
2022-08-31T09:25:28.358Z,58.86
2022-08-31T09:28:15.155Z,59.45
2022-08-31T09:30:44.813Z,58.62
2022-08-31T09:33:23.349Z,58.79
2022-08-31T09:35:55.968Z,59.48
2022-08-31T09:38:39.412Z,58.53
2022-08-31T09:41:31.429Z,59.03
2022-08-31T09:44:23.514Z,59.07
2022-08-31T09:46:53.467Z,58.33
2022-08-31T09:49:22.539Z,58.91
2022-08-31T09:51:49.483Z,58.71
2022-08-31T09:54:34.653Z,59.15
2022-08-31T09:57:06.982Z,58.74
2022-08-31T09:59:41.792Z,58.57
2022-08-31T10:02:31.545Z,58.33
2022-08-31T10:05:06.475Z,59.30
2022-08-31T10:07:44.951Z,59.61
2022-08-31T10:10:24.303Z,58.71
2022-08-31T10:13:04.341Z,57.41
2022-08-31T10:15:42.678Z,57.04
2022-08-31T10:18:19.332Z,56.73
2022-08-31T10:21:06.043Z,57.11
2022-08-31T10:23:53.915Z,56.60
2022-08-31T10:26:31.599Z,56.49
2022-08-31T10:29:05.967Z,56.24
2022-08-31T10:31:48.105Z,55.34
2022-08-31T10:34:52.232Z,56.51
2022-08-31T10:37:43.694Z,54.59
2022-08-31T10:40:18.355Z,54.65
2022-08-31T10:43:10.118Z,54.43
2022-08-31T10:45:42.847Z,53.96
2022-08-31T10:48:12.732Z,54.66
2022-08-31T10:50:51.291Z,54.33
2022-08-31T10:53:54.192Z,53.78
2022-08-31T10:56:41.248Z,53.64
2022-08-31T10:59:31.569Z,53.88
2022-08-31T11:02:23.601Z,55.00
2022-08-31T11:05:19.775Z,54.35
2022-08-31T11:08:13.177Z,54.02
2022-08-31T11:10:54.165Z,54.89
2022-08-31T11:13:36.045Z,54.41
2022-08-31T11:16:34.368Z,53.02
2022-08-31T11:19:38.626Z,53.71
2022-08-31T11:22:21.262Z,52.39
2022-08-31T11:24:57.435Z,53.36
2022-08-31T11:27:28.310Z,53.51
2022-08-31T11:30:08.044Z,53.06
2022-08-31T11:32:47.268Z,52.98
2022-08-31T11:35:15.236Z,53.59
2022-08-31T11:37:55.542Z,53.42
2022-08-31T11:40:41.524Z,53.51
2022-08-31T11:43:16.174Z,53.61
2022-08-31T11:45:43.112Z,53.58
2022-08-31T11:48:51.068Z,53.18
2022-08-31T11:51:40.966Z,54.01
2022-08-31T11:54:36.228Z,53.02
2022-08-31T11:57:05.957Z,53.93
2022-08-31T11:59:35.385Z,53.12
2022-08-31T12:02:20.522Z,52.89
2022-08-31T12:04:48.099Z,53.27
2022-08-31T12:07:27.858Z,53.38
2022-08-31T12:10:33.557Z,53.90
2022-08-31T12:13:09.041Z,52.50
2022-08-31T12:16:01.227Z,52.09
2022-08-31T12:18:51.197Z,52.29
2022-08-31T12:21:42.449Z,52.90
2022-08-31T12:24:18.660Z,51.85
2022-08-31T12:27:14.523Z,52.26
2022-08-31T12:29:42.127Z,52.78
2022-08-31T12:32:36.176Z,52.91
2022-08-31T12:35:23.211Z,52.63
2022-08-31T12:38:06.365Z,52.57
2022-08-31T12:40:45.100Z,52.02
2022-08-31T12:43:23.388Z,51.44
2022-08-31T12:45:49.938Z,52.31
2022-08-31T12:48:41.296Z,52.34
2022-08-31T12:51:26.711Z,52.18
2022-08-31T12:54:41.283Z,51.26
2022-08-31T12:57:26.801Z,51.51
2022-08-31T13:00:26.010Z,51.50
2022-08-31T13:02:57.664Z,51.66
2022-08-31T13:05:36.633Z,52.17
2022-08-31T13:08:20.976Z,52.92
2022-08-31T13:10:47.625Z,51.93
2022-08-31T13:13:23.172Z,52.04
2022-08-31T13:15:49.826Z,51.75
2022-08-31T13:18:23.399Z,52.30
2022-08-31T13:21:02.266Z,52.10
2022-08-31T13:23:41.371Z,52.81
2022-08-31T13:26:25.039Z,53.34
2022-08-31T13:29:00.265Z,53.35
2022-08-31T13:31:33.522Z,52.73
2022-08-31T13:34:03.203Z,53.15
2022-08-31T13:36:38.653Z,52.90
2022-08-31T13:39:15.863Z,52.02
2022-08-31T13:42:06.573Z,52.21
2022-08-31T13:44:42.303Z,51.74
2022-08-31T13:47:21.429Z,52.40
2022-08-31T13:49:53.145Z,53.47
2022-08-31T13:52:30.048Z,52.75
2022-08-31T13:55:08.147Z,53.00
2022-08-31T13:57:38.160Z,53.18
2022-08-31T14:00:23.412Z,52.58
2022-08-31T14:02:50.078Z,53.09
2022-08-31T14:05:35.789Z,52.71
2022-08-31T14:08:04.380Z,51.88
2022-08-31T14:10:37.590Z,51.43
2022-08-31T14:13:09.963Z,51.90
2022-08-31T14:15:47.329Z,51.26
2022-08-31T14:18:43.047Z,51.75
2022-08-31T14:21:20.965Z,52.14
2022-08-31T14:24:01.956Z,50.87
2022-08-31T14:26:41.716Z,51.55
2022-08-31T14:29:17.422Z,51.88
2022-08-31T14:31:49.012Z,51.81
2022-08-31T14:34:24.438Z,51.64
2022-08-31T14:36:53.126Z,51.18
2022-08-31T14:40:07.078Z,50.85
2022-08-31T14:42:37.581Z,51.64
2022-08-31T14:45:18.241Z,51.26
2022-08-31T14:47:47.845Z,52.18
2022-08-31T14:50:18.659Z,51.34
2022-08-31T14:52:55.037Z,51.26
2022-08-31T14:55:24.555Z,51.28
2022-08-31T14:58:05.005Z,51.34
2022-08-31T15:00:33.722Z,50.89
2022-08-31T15:03:02.439Z,50.98
2022-08-31T15:05:29.484Z,51.31
2022-08-31T15:07:56.757Z,50.71
2022-08-31T15:10:25.789Z,50.84
2022-08-31T15:12:53.523Z,51.28
2022-08-31T15:15:20.723Z,49.88
2022-08-31T15:17:50.438Z,49.97
2022-08-31T15:20:19.550Z,50.30
2022-08-31T15:22:48.146Z,50.31
2022-08-31T15:25:15.127Z,50.13
2022-08-31T15:27:44.311Z,50.16
2022-08-31T15:30:14.692Z,49.91
2022-08-31T15:32:47.786Z,49.56
2022-08-31T15:35:18.899Z,49.48
2022-08-31T15:37:56.310Z,48.86
2022-08-31T15:40:23.827Z,48.91
2022-08-31T15:42:53.861Z,48.88
2022-08-31T15:45:23.225Z,49.52
2022-08-31T15:48:08.597Z,48.61
2022-08-31T15:50:35.937Z,48.83
2022-08-31T15:53:09.573Z,48.95
2022-08-31T15:55:40.234Z,49.57
2022-08-31T15:58:08.368Z,48.58
2022-08-31T16:00:36.657Z,48.67
2022-08-31T16:03:03.660Z,48.93
2022-08-31T16:05:39.315Z,48.21
2022-08-31T16:08:11.748Z,48.63
2022-08-31T16:10:45.850Z,48.52
2022-08-31T16:13:13.130Z,47.97
2022-08-31T16:15:39.763Z,48.06
2022-08-31T16:18:06.910Z,47.36
2022-08-31T16:20:34.527Z,47.10
2022-08-31T16:23:01.166Z,46.93
2022-08-31T16:25:30.384Z,47.15
2022-08-31T16:28:14.279Z,47.07
2022-08-31T16:30:43.609Z,46.71
2022-08-31T16:33:11.433Z,46.80
2022-08-31T16:35:39.121Z,46.61
2022-08-31T16:38:06.949Z,46.74
2022-08-31T16:40:33.813Z,47.15
2022-08-31T16:43:00.382Z,46.79
2022-08-31T16:45:27.048Z,46.40
2022-08-31T16:48:13.570Z,46.62
2022-08-31T16:50:47.067Z,46.67
2022-08-31T16:53:18.028Z,46.46
2022-08-31T16:55:47.333Z,46.78
2022-08-31T16:58:24.920Z,46.08
2022-08-31T17:01:03.423Z,45.99
2022-08-31T17:03:30.025Z,45.84
2022-08-31T17:05:56.944Z,46.23
2022-08-31T17:08:23.563Z,46.26
2022-08-31T17:10:51.213Z,46.29
2022-08-31T17:13:17.856Z,46.60
2022-08-31T17:15:44.380Z,46.31
2022-08-31T17:18:10.937Z,46.12
2022-08-31T17:20:39.762Z,45.71
2022-08-31T17:23:06.551Z,46.47
2022-08-31T17:25:35.699Z,45.98
2022-08-31T17:28:07.373Z,46.46
2022-08-31T17:30:34.349Z,46.47
2022-08-31T17:33:01.368Z,46.54
2022-08-31T17:35:28.883Z,46.34
2022-08-31T17:37:55.487Z,45.86
2022-08-31T17:40:22.104Z,45.85
2022-08-31T17:42:49.646Z,45.92
2022-08-31T17:45:17.421Z,45.60
2022-08-31T17:47:44.158Z,45.83
2022-08-31T17:50:10.852Z,45.86
2022-08-31T17:52:37.480Z,45.83
2022-08-31T17:55:04.337Z,45.86
2022-08-31T17:57:31.096Z,46.15
2022-08-31T17:59:57.760Z,45.84
2022-08-31T18:02:32.277Z,46.34
2022-08-31T18:05:00.114Z,46.36
2022-08-31T18:07:27.207Z,46.32
2022-08-31T18:09:53.765Z,46.19
2022-08-31T18:12:22.038Z,46.27
2022-08-31T18:14:49.270Z,46.21
2022-08-31T18:17:17.087Z,46.05
2022-08-31T18:19:45.169Z,46.45
2022-08-31T18:22:14.127Z,45.82
2022-08-31T18:24:41.708Z,46.92
2022-08-31T18:27:09.697Z,46.84
2022-08-31T18:29:38.010Z,46.91
2022-08-31T18:32:07.118Z,46.92
2022-08-31T18:34:37.186Z,47.05
2022-08-31T18:37:04.642Z,46.78
2022-08-31T18:39:52.487Z,46.95
2022-08-31T18:42:39.351Z,46.67
2022-08-31T18:45:18.123Z,47.43
2022-08-31T18:48:20.954Z,47.90
2022-08-31T18:50:45.027Z,47.59
2022-08-31T18:53:15.315Z,47.85
2022-08-31T18:55:53.339Z,48.31
2022-08-31T18:58:20.118Z,48.60
2022-08-31T19:00:57.158Z,48.34
2022-08-31T19:03:25.573Z,48.44
2022-08-31T19:05:52.139Z,48.84
2022-08-31T19:08:19.308Z,48.55
2022-08-31T19:10:46.786Z,48.80
2022-08-31T19:13:16.166Z,48.81
2022-08-31T19:15:43.706Z,48.87
2022-08-31T19:18:10.252Z,49.30
2022-08-31T19:20:36.820Z,49.18
2022-08-31T19:23:04.202Z,49.26
2022-08-31T19:25:31.895Z,49.25
2022-08-31T19:28:01.270Z,49.26
2022-08-31T19:30:28.626Z,49.46
2022-08-31T19:32:56.406Z,49.19
2022-08-31T19:35:25.897Z,49.56
2022-08-31T19:37:53.665Z,49.61
2022-08-31T19:40:20.461Z,49.12
2022-08-31T19:43:43.592Z,49.34
2022-08-31T19:45:44.957Z,49.32
2022-08-31T19:48:12.679Z,49.09
2022-08-31T19:50:42.265Z,49.55
2022-08-31T19:53:14.023Z,49.49
2022-08-31T19:55:52.364Z,49.40
2022-08-31T19:58:25.190Z,49.89
2022-08-31T20:01:00.654Z,49.93
2022-08-31T20:03:28.156Z,50.22
2022-08-31T20:05:54.968Z,49.99
2022-08-31T20:08:21.608Z,50.31
2022-08-31T20:10:48.136Z,49.89
2022-08-31T20:13:14.742Z,49.94
2022-08-31T20:15:44.205Z,49.84
2022-08-31T20:18:12.466Z,49.89
2022-08-31T20:20:48.280Z,50.05
2022-08-31T20:23:17.857Z,50.02
2022-08-31T20:25:46.657Z,49.55
2022-08-31T20:28:14.084Z,49.89
2022-08-31T20:30:42.518Z,49.38
2022-08-31T20:33:11.240Z,49.33
2022-08-31T20:35:47.425Z,49.14
2022-08-31T20:38:15.801Z,49.43
2022-08-31T20:40:44.480Z,49.33
2022-08-31T20:43:12.632Z,49.35
2022-08-31T20:45:41.153Z,49.60
2022-08-31T20:48:26.671Z,49.42
2022-08-31T20:50:53.257Z,49.18
2022-08-31T20:53:24.857Z,49.75
2022-08-31T20:56:07.932Z,49.80
2022-08-31T20:58:34.801Z,49.60
2022-08-31T21:01:08.879Z,49.93
2022-08-31T21:03:35.801Z,49.48
2022-08-31T21:06:11.383Z,49.36
2022-08-31T21:08:39.113Z,49.41
2022-08-31T21:11:16.039Z,49.36
2022-08-31T21:13:44.505Z,49.19
2022-08-31T21:16:11.551Z,49.30
2022-08-31T21:18:39.969Z,49.23
2022-08-31T21:21:09.969Z,49.59
2022-08-31T21:23:38.317Z,49.55
2022-08-31T21:26:08.444Z,49.29
2022-08-31T21:28:39.645Z,49.45
2022-08-31T21:31:18.432Z,49.06
2022-08-31T21:33:58.463Z,49.39
2022-08-31T21:36:26.625Z,49.61
2022-08-31T21:38:55.388Z,49.60
2022-08-31T21:41:24.596Z,49.75
2022-08-31T21:43:51.184Z,49.87
2022-08-31T21:46:23.219Z,50.26
2022-08-31T21:48:51.826Z,50.20
2022-08-31T21:51:24.941Z,50.24
2022-08-31T21:54:03.623Z,50.69
2022-08-31T21:56:34.677Z,50.90
2022-08-31T21:59:02.053Z,50.98
2022-08-31T22:01:29.894Z,50.97
2022-08-31T22:03:59.038Z,50.88
2022-08-31T22:06:31.003Z,50.93
2022-08-31T22:09:05.695Z,51.33
2022-08-31T22:11:37.191Z,51.26
2022-08-31T22:14:06.906Z,51.54
2022-08-31T22:16:38.530Z,51.26
2022-08-31T22:19:12.580Z,51.42
2022-08-31T22:21:43.124Z,51.66
2022-08-31T22:24:13.459Z,51.41
2022-08-31T22:26:54.401Z,51.45
2022-08-31T22:29:23.737Z,51.84
2022-08-31T22:31:52.833Z,52.10
2022-08-31T22:34:21.071Z,52.10
2022-08-31T22:36:50.634Z,52.33
2022-08-31T22:39:19.581Z,52.19
2022-08-31T22:41:47.241Z,52.48
2022-08-31T22:44:17.143Z,52.96
2022-08-31T22:46:44.362Z,53.07
2022-08-31T22:49:11.048Z,53.01
2022-08-31T22:51:40.532Z,53.17
2022-08-31T22:54:09.373Z,53.22
2022-08-31T22:56:38.047Z,53.22
2022-08-31T22:59:09.033Z,53.58
2022-08-31T23:01:47.884Z,53.74
2022-08-31T23:04:20.341Z,53.80
2022-08-31T23:06:52.825Z,54.21
2022-08-31T23:09:21.526Z,54.39
2022-08-31T23:11:51.414Z,54.44
2022-08-31T23:14:20.895Z,54.54
2022-08-31T23:34:16.894Z,55.29
2022-08-31T23:36:48.836Z,55.43
2022-08-31T23:39:17.775Z,55.69
2022-08-31T23:41:45.108Z,55.68
2022-08-31T23:44:12.929Z,55.96
2022-08-31T23:46:41.228Z,55.50
2022-08-31T23:49:10.461Z,55.71
2022-08-31T23:51:38.254Z,55.70
2022-08-31T23:54:07.751Z,55.97
2022-08-31T23:56:40.657Z,55.97
2022-08-31T23:59:15.660Z,55.87
